Time;durP1;ratioP1;P1;durP2;ratioP2;P2;SDS_P1;SDS_P2;PMS_P1;PMS_P2;Temp;Humidity;BMP_temperature;BMP_pressure;BME280_temperature;BME280_humidity;BME280_pressure;Samples;Min_cycle;Max_cycle;Signal;HPM_P1;HPM_P2
2021/05/06 00:33:46;;;;;;;28.88;8.80;;;;;;;-150.07;31.01;54946.97;5020173;28;20128;-86
2021/05/06 00:36:13;;;;;;;32.30;7.43;;;;;;;-150.07;30.21;54946.97;5021416;28;20033;-84
2021/05/06 00:38:45;;;;;;;21.75;6.05;;;;;;;-150.07;30.93;54949.06;5016615;28;20048;-85
2021/05/06 01:00:30;;;;;;;25.98;6.20;;;;;;;-150.07;29.48;54946.97;4996358;28;20065;-85
2021/05/06 01:03:28;;;;;;;25.85;6.07;;;;;;;-150.07;29.52;54951.16;4994446;28;20080;-85
2021/05/06 01:06:01;;;;;;;30.58;7.15;;;;;;;-150.07;30.75;54946.97;5011683;28;20092;-87
2021/05/06 01:08:32;;;;;;;18.77;6.57;;;;;;;-150.07;30.23;54944.88;5011952;28;20372;-85
2021/05/06 01:13:31;;;;;;;30.38;8.63;;;;;;;-150.07;29.91;54946.97;5011680;28;20543;-84
2021/05/06 01:15:59;;;;;;;31.70;7.50;;;;;;;-150.07;30.21;54949.06;5012287;28;20033;-83
2021/05/06 01:18:26;;;;;;;24.02;8.18;;;;;;;-150.07;30.14;54949.06;5012111;28;20379;-84
2021/05/06 01:20:59;;;;;;;25.10;7.85;;;;;;;-150.07;30.79;54949.06;5012033;28;20022;-84
2021/05/06 01:23:28;;;;;;;31.98;8.18;;;;;;;-150.07;30.76;54942.78;4994536;28;20439;-84
2021/05/06 01:26:02;;;;;;;25.23;7.22;;;;;;;-150.07;31.05;54946.97;5012068;28;20018;-83
2021/05/06 01:28:33;;;;;;;18.58;8.30;;;;;;;-150.07;31.07;54946.97;5012106;28;20026;-84
2021/05/06 01:36:01;;;;;;;31.92;7.60;;;;;;;-150.07;30.86;54944.88;5011502;28;20085;-85
2021/05/06 01:41:32;;;;;;;33.47;9.18;;;;;;;-150.07;31.41;54946.97;5014141;28;20036;-85
2021/05/06 01:44:07;;;;;;;31.48;8.93;;;;;;;-150.07;31.48;54946.97;5013594;28;20030;-84
2021/05/06 01:49:32;;;;;;;37.80;10.18;;;;;;;-150.07;31.80;54949.06;5013589;28;20419;-85
2021/05/06 01:57:42;;;;;;;34.55;10.95;;;;;;;-150.07;31.84;54946.97;5016301;28;20095;-84
2021/05/06 02:00:17;;;;;;;32.50;12.32;;;;;;;-150.07;32.09;54949.06;5016692;28;20053;-84
2021/05/06 02:02:47;;;;;;;34.70;13.07;;;;;;;-150.07;31.46;54946.97;5017569;28;20026;-85
2021/05/06 02:05:15;;;;;;;33.83;12.93;;;;;;;-150.07;32.07;54946.97;5003064;28;20057;-84
2021/05/06 02:07:45;;;;;;;40.95;13.15;;;;;;;-150.07;32.25;54949.06;5016396;28;20045;-85
2021/05/06 02:10:15;;;;;;;36.58;13.35;;;;;;;-150.07;31.97;54944.88;5017186;28;20109;-84
2021/05/06 02:12:43;;;;;;;34.88;12.10;;;;;;;-150.07;32.04;54946.97;5016056;28;20026;-84
2021/05/06 02:15:22;;;;;;;31.92;13.65;;;;;;;-150.07;32.10;54949.06;4997965;28;20033;-83
2021/05/06 02:17:50;;;;;;;44.43;14.47;;;;;;;-150.07;32.23;54944.88;5009507;28;20041;-84
2021/05/06 02:20:17;;;;;;;22.83;9.68;;;;;;;-150.07;32.27;54946.97;5011123;28;20124;-85
2021/05/06 02:22:46;;;;;;;34.65;12.70;;;;;;;-150.07;32.45;54946.97;5014805;28;20041;-85
2021/05/06 02:25:14;;;;;;;31.95;12.20;;;;;;;-150.07;32.59;54949.06;5015241;28;20471;-83
2021/05/06 02:27:41;;;;;;;33.10;11.52;;;;;;;-150.07;33.28;54946.97;5015241;28;20034;-84
2021/05/06 02:30:09;;;;;;;25.48;11.07;;;;;;;-150.07;32.54;54949.06;4998575;28;20030;-85
2021/05/06 02:32:37;;;;;;;33.60;11.88;;;;;;;-150.07;32.30;54951.16;4998099;28;20037;-86
2021/05/06 02:35:04;;;;;;;30.60;11.57;;;;;;;-150.07;32.91;54949.06;5015837;28;20108;-84
2021/05/06 02:37:31;;;;;;;54.60;13.88;;;;;;;-150.07;32.90;54944.88;5015907;28;20026;-82
2021/05/06 02:39:58;;;;;;;27.27;11.43;;;;;;;-150.07;33.13;54946.97;5015338;28;20445;-84
2021/05/06 02:42:25;;;;;;;29.65;12.02;;;;;;;-150.07;32.98;54944.88;4998226;28;20026;-84
2021/05/06 02:44:52;;;;;;;30.75;11.32;;;;;;;-150.07;33.24;54944.88;5015817;28;20028;-84
2021/05/06 02:47:19;;;;;;;43.53;12.77;;;;;;;-150.07;33.67;54944.88;5016190;28;20034;-85
2021/05/06 02:49:47;;;;;;;34.72;12.18;;;;;;;-150.07;33.67;54949.06;5015276;28;20033;-85
2021/05/06 02:52:29;;;;;;;32.40;12.60;;;;;;;-150.07;33.31;54946.97;5030416;28;20041;-85
2021/05/06 03:02:55;;;;;;;28.88;12.95;;;;;;;-150.07;32.84;54946.97;5014641;28;20080;-84
2021/05/06 03:05:26;;;;;;;29.35;14.52;;;;;;;-150.07;33.36;54946.97;5001918;28;20045;-84
2021/05/06 03:23:35;;;;;;;34.92;13.82;;;;;;;-150.07;33.61;54946.97;5013777;28;20045;-85
2021/05/06 03:26:02;;;;;;;38.08;13.93;;;;;;;-150.07;33.79;54946.97;4995784;28;20049;-83
2021/05/06 03:28:37;;;;;;;37.08;14.55;;;;;;;-150.07;33.67;54946.97;5012823;28;20026;-84
2021/05/06 03:42:10;;;;;;;46.75;15.48;;;;;;;-150.07;33.62;54946.97;5014861;28;20501;-84
2021/05/06 04:35:24;;;;;;;42.13;18.08;;;;;;;-150.07;36.74;54949.06;4999704;28;20025;-85
2021/05/06 04:37:03;;;;;;;47.05;19.60;;;;;;;-150.07;36.95;54946.97;5012498;28;20625;-85
2021/05/06 04:39:36;;;;;;;51.40;19.83;;;;;;;-150.07;36.98;54946.97;5012068;28;20088;-85
2021/05/06 04:55:30;;;;;;;44.08;18.48;;;;;;;-150.07;36.45;54946.97;5012164;28;20041;-84
2021/05/06 05:05:42;;;;;;;48.15;20.27;;;;;;;-150.07;36.11;54946.97;5013285;28;20046;-84
2021/05/06 05:08:13;;;;;;;39.45;18.45;;;;;;;-150.07;35.53;54946.97;5020516;28;20029;-83
2021/05/06 05:10:50;;;;;;;57.20;20.20;;;;;;;-150.07;35.05;54949.06;5013743;28;20395;-84
2021/05/06 05:13:37;;;;;;;42.17;17.73;;;;;;;-150.07;34.93;54946.97;5012270;28;20026;-85
2021/05/06 05:19:03;;;;;;;39.97;17.42;;;;;;;-150.07;34.50;54946.97;5012053;28;20399;-85
2021/05/06 05:24:27;;;;;;;36.50;17.52;;;;;;;-150.07;34.74;54946.97;5011223;28;20104;-84
2021/05/06 05:26:54;;;;;;;34.42;15.50;;;;;;;-150.07;35.28;54946.97;5006464;28;20030;-83
2021/05/06 05:29:21;;;;;;;47.47;17.75;;;;;;;-150.07;34.55;54946.97;5011203;28;20478;-84
2021/05/06 05:31:48;;;;;;;38.67;19.02;;;;;;;-150.07;35.29;54944.88;5010908;28;20041;-84
2021/05/06 05:34:24;;;;;;;42.28;16.38;;;;;;;-150.07;35.06;54946.97;5011944;28;20025;-84
2021/05/06 05:36:54;;;;;;;42.55;18.85;;;;;;;-150.07;34.62;54944.88;5006006;28;20026;-82
2021/05/06 05:55:11;;;;;;;39.17;15.88;;;;;;;-150.07;32.84;54946.97;5010960;28;20705;-83
2021/05/06 05:57:38;;;;;;;33.20;14.57;;;;;;;-150.07;32.93;54946.97;4993542;28;20053;-84
2021/05/06 06:00:05;;;;;;;28.80;13.45;;;;;;;-150.07;32.82;54942.78;4993668;28;20026;-84
2021/05/06 06:02:35;;;;;;;37.47;14.38;;;;;;;-150.07;32.84;54946.97;5000973;28;20479;-85
2021/05/06 06:05:02;;;;;;;39.60;15.80;;;;;;;-150.07;32.90;54942.78;4995672;28;20076;-85
2021/05/06 06:07:29;;;;;;;35.78;13.40;;;;;;;-150.07;33.28;54946.97;5009950;28;20479;-85
2021/05/06 06:09:56;;;;;;;41.45;15.75;;;;;;;-150.07;32.46;54942.78;5011384;28;20034;-84
2021/05/06 06:12:23;;;;;;;34.10;14.98;;;;;;;-150.07;32.71;54944.88;5009973;28;20034;-84
2021/05/06 06:17:16;;;;;;;29.77;14.30;;;;;;;-150.07;32.99;54949.06;5012543;28;20038;-84
2021/05/06 06:19:49;;;;;;;39.65;16.23;;;;;;;-150.07;33.13;54949.06;5010150;28;20061;-84
2021/05/06 06:22:19;;;;;;;29.08;12.25;;;;;;;-150.07;33.18;54944.88;5008481;28;20115;-84
2021/05/06 06:24:46;;;;;;;31.33;14.07;;;;;;;-150.07;32.71;54944.88;5010881;28;20077;-84
2021/05/06 06:27:15;;;;;;;36.55;14.32;;;;;;;-150.07;33.85;54946.97;5011452;28;20407;-84
2021/05/06 06:29:41;;;;;;;34.78;14.70;;;;;;;-150.07;32.96;54946.97;4993707;28;20545;-85
2021/05/06 06:32:12;;;;;;;34.45;15.27;;;;;;;-150.07;33.00;54944.88;4997341;28;20029;-84
2021/05/06 06:34:39;;;;;;;55.05;17.27;;;;;;;-150.07;33.16;54944.88;5004235;28;20041;-83
2021/05/06 06:37:06;;;;;;;43.92;14.45;;;;;;;-150.07;33.78;54946.97;5011125;28;20549;-85
2021/05/06 06:39:39;;;;;;;40.72;16.25;;;;;;;-150.07;34.02;54946.97;5009875;28;20030;-85
2021/05/06 06:42:08;;;;;;;39.08;14.88;;;;;;;-150.07;33.97;54946.97;5011504;28;20037;-85
2021/05/06 06:44:36;;;;;;;31.92;15.63;;;;;;;-150.07;33.63;54942.78;5016509;28;20022;-85
2021/05/06 06:47:05;;;;;;;30.40;13.20;;;;;;;-150.07;34.29;54949.06;5000676;28;20026;-82
2021/05/06 06:49:37;;;;;;;39.80;14.60;;;;;;;-150.07;33.34;54946.97;5015911;28;20033;-82
2021/05/06 06:52:05;;;;;;;43.70;16.60;;;;;;;-150.07;33.74;54944.88;5028381;28;20032;-85
2021/05/06 06:54:33;;;;;;;34.33;14.82;;;;;;;-150.07;33.05;54944.88;5023120;28;20036;-85
2021/05/06 06:57:00;;;;;;;42.95;14.60;;;;;;;-150.07;33.35;54946.97;5015410;28;20029;-84
2021/05/06 06:59:27;;;;;;;37.08;14.48;;;;;;;-150.07;33.21;54946.97;5015007;28;20486;-84
2021/05/06 07:01:54;;;;;;;32.67;17.00;;;;;;;-150.07;33.59;54949.06;5003359;28;20033;-84
2021/05/06 07:04:21;;;;;;;28.38;13.77;;;;;;;-150.07;33.85;54949.06;5017877;28;20176;-84
2021/05/06 07:06:48;;;;;;;43.03;15.43;;;;;;;-150.07;34.20;54942.78;5015515;28;20037;-84
2021/05/06 07:09:15;;;;;;;37.85;15.30;;;;;;;-150.07;34.40;54946.97;5012624;28;20034;-84
2021/05/06 07:11:41;;;;;;;31.67;13.70;;;;;;;-150.07;34.47;54949.06;5000582;28;20033;-84
2021/05/06 07:14:08;;;;;;;28.60;12.60;;;;;;;-150.07;34.59;54944.88;5016788;28;20495;-85
2021/05/06 07:16:35;;;;;;;27.13;12.98;;;;;;;-150.07;34.80;54946.97;5015494;28;20022;-84
2021/05/06 07:19:03;;;;;;;29.90;12.18;;;;;;;-150.07;34.04;54946.97;4997919;28;20029;-84
2021/05/06 07:21:30;;;;;;;44.97;15.07;;;;;;;-150.07;34.00;54951.16;5018951;28;20463;-85
2021/05/06 07:23:57;;;;;;;33.33;11.02;;;;;;;-150.07;34.49;54946.97;5017277;28;20455;-84
2021/05/06 07:26:25;;;;;;;26.15;11.40;;;;;;;-150.07;33.89;54946.97;5014319;28;20034;-84
2021/05/06 07:28:53;;;;;;;32.88;11.20;;;;;;;-150.07;34.58;54946.97;4996764;28;20044;-83
2021/05/06 07:31:21;;;;;;;33.83;10.13;;;;;;;-150.07;33.51;54944.88;4996509;28;20411;-83
2021/05/06 07:33:50;;;;;;;33.47;13.55;;;;;;;-150.07;33.99;54946.97;4996838;28;20021;-84
2021/05/06 07:36:19;;;;;;;29.90;11.43;;;;;;;-150.07;32.85;54946.97;4996148;28;20146;-84
2021/05/06 07:38:48;;;;;;;36.67;12.33;;;;;;;-150.07;33.09;54944.88;4992401;28;20038;-84
2021/05/06 07:41:16;;;;;;;31.67;11.77;;;;;;;-150.07;33.90;54946.97;4994793;28;20472;-84
2021/05/06 07:43:43;;;;;;;24.42;10.77;;;;;;;-150.07;34.07;54946.97;4993549;28;20392;-85
2021/05/06 07:46:11;;;;;;;25.83;12.52;;;;;;;-150.07;34.31;54946.97;4994159;28;20027;-84
2021/05/06 07:48:38;;;;;;;27.27;10.25;;;;;;;-150.07;33.87;54944.88;5001222;28;20038;-84
2021/05/06 07:51:06;;;;;;;27.38;10.43;;;;;;;-150.07;33.88;54951.16;4978733;28;20030;-85
2021/05/06 07:53:50;;;;;;;34.13;11.30;;;;;;;-150.07;33.69;54946.97;4978907;28;20562;-87
2021/05/06 07:56:18;;;;;;;24.00;11.55;;;;;;;-150.07;33.30;54951.16;4979415;28;20031;-86
2021/05/06 07:58:45;;;;;;;24.45;9.65;;;;;;;-150.07;33.13;54946.97;4978986;28;20480;-85
2021/05/06 08:01:12;;;;;;;33.92;10.10;;;;;;;-150.07;33.41;54942.78;4978197;28;20034;-85
2021/05/06 08:03:39;;;;;;;22.48;9.60;;;;;;;-150.07;32.33;54944.88;4993097;28;20033;-85
2021/05/06 08:06:06;;;;;;;41.65;8.75;;;;;;;-150.07;32.40;54949.06;5013676;28;20128;-85
2021/05/06 08:08:33;;;;;;;19.08;8.93;;;;;;;-150.07;33.14;54944.88;5019758;28;20037;-85
2021/05/06 08:11:00;;;;;;;25.38;8.48;;;;;;;-150.07;33.18;54951.16;5014875;28;20487;-86
2021/05/06 08:13:28;;;;;;;28.60;9.32;;;;;;;-150.07;32.09;54944.88;5013593;28;20076;-85
2021/05/06 08:15:57;;;;;;;24.48;7.53;;;;;;;-150.07;31.37;54946.97;4998620;28;20451;-86
2021/05/06 08:18:25;;;;;;;24.65;7.82;;;;;;;-150.07;31.33;54951.16;5002759;28;20048;-85
2021/05/06 08:20:52;;;;;;;18.15;7.93;;;;;;;-150.07;30.81;54946.97;5003352;28;20030;-85
2021/05/06 08:23:20;;;;;;;15.57;6.75;;;;;;;-150.07;31.22;54946.97;5011794;28;20037;-84
2021/05/06 08:25:47;;;;;;;19.40;8.70;;;;;;;-150.07;31.92;54946.97;4996117;28;20030;-86
2021/05/06 08:28:14;;;;;;;17.33;5.97;;;;;;;-150.07;31.75;54946.97;4995973;28;20076;-83
2021/05/06 08:30:43;;;;;;;18.83;6.70;;;;;;;-150.07;31.84;54951.16;4997368;28;20053;-84
2021/05/06 08:33:11;;;;;;;29.48;8.07;;;;;;;-150.07;32.28;54949.06;5010623;28;20064;-84
2021/05/06 08:35:38;;;;;;;18.08;6.88;;;;;;;-150.07;31.28;54946.97;5011309;28;20037;-84
2021/05/06 08:38:05;;;;;;;27.33;7.75;;;;;;;-150.07;31.33;54946.97;5012679;28;20574;-84
2021/05/06 08:40:32;;;;;;;15.80;7.25;;;;;;;-150.07;31.36;54949.06;5008327;28;20096;-84
2021/05/06 08:42:59;;;;;;;32.83;6.65;;;;;;;-150.07;31.15;54944.88;5012467;28;20022;-83
2021/05/06 08:45:31;;;;;;;24.60;7.00;;;;;;;-150.07;31.15;54946.97;5011502;28;20084;-84
2021/05/06 08:47:59;;;;;;;25.95;7.88;;;;;;;-150.07;31.04;54942.78;5010982;28;20497;-84
2021/05/06 08:50:27;;;;;;;21.85;5.93;;;;;;;-150.07;31.14;54946.97;5012289;28;20030;-84
2021/05/06 08:52:54;;;;;;;25.45;5.50;;;;;;;-150.07;30.94;54951.16;5016011;28;20018;-83
2021/05/06 08:55:21;;;;;;;24.02;5.97;;;;;;;-150.07;30.84;54951.16;5012203;28;20014;-84
2021/05/06 08:57:50;;;;;;;22.13;6.25;;;;;;;-150.07;31.10;54951.16;5012382;28;20057;-85
2021/05/06 09:00:17;;;;;;;14.85;4.65;;;;;;;-150.07;31.29;54949.06;5012550;28;20663;-84
2021/05/06 09:02:48;;;;;;;21.80;5.53;;;;;;;-150.07;31.34;54946.97;5008412;28;20038;-84
2021/05/06 09:05:15;;;;;;;20.73;5.60;;;;;;;-150.07;31.53;54946.97;5011016;28;20152;-83
2021/05/06 09:07:46;;;;;;;18.77;4.50;;;;;;;-150.07;30.89;54946.97;4995379;28;20108;-85
2021/05/06 09:10:42;;;;;;;21.70;6.00;;;;;;;-150.07;30.70;54946.97;5010984;28;20030;-85
2021/05/06 09:13:29;;;;;;;21.42;6.50;;;;;;;-150.07;29.41;54946.97;5007369;28;20033;-83
2021/05/06 09:15:57;;;;;;;15.15;5.15;;;;;;;-150.07;29.38;54946.97;4998192;28;20038;-85
2021/05/06 09:18:40;;;;;;;23.00;5.15;;;;;;;-150.07;28.92;54946.97;5016149;28;20479;-87
2021/05/06 09:21:26;;;;;;;28.95;5.75;;;;;;;-150.07;29.03;54946.97;5019038;28;20050;-85
2021/05/06 09:24:11;;;;;;;27.15;4.65;;;;;;;-150.07;28.78;54949.06;4999498;28;20158;-86
2021/05/06 09:26:42;;;;;;;20.33;4.03;;;;;;;-150.07;28.48;54946.97;4999588;28;20053;-86
2021/05/06 09:29:11;;;;;;;15.52;3.85;;;;;;;-150.07;28.42;54949.06;5005654;28;20041;-85
2021/05/06 09:31:42;;;;;;;16.52;4.43;;;;;;;-150.07;28.24;54946.97;5018529;28;20440;-86
2021/05/06 09:34:12;;;;;;;20.15;3.80;;;;;;;-150.07;28.12;54949.06;5007578;28;20411;-85
2021/05/06 09:36:38;;;;;;;;;;;;;;;-150.07;28.11;54946.97;4996006;28;20050;-86
2021/05/06 09:39:09;;;;;;;15.57;4.55;;;;;;;-150.07;28.98;54949.06;5011475;28;19925;-84
2021/05/06 09:41:38;;;;;;;19.13;4.30;;;;;;;-150.07;28.80;54946.97;4994567;28;20033;-85
2021/05/06 09:44:22;;;;;;;20.77;4.05;;;;;;;-150.07;29.67;54951.16;4994619;28;20026;-82
2021/05/06 09:46:58;;;;;;;13.90;3.92;;;;;;;-150.07;30.49;54946.97;4994407;28;20033;-85
2021/05/06 09:49:26;;;;;;;13.65;5.38;;;;;;;-150.07;31.50;54949.06;5010683;28;20025;-84
2021/05/06 09:51:59;;;;;;;19.95;6.60;;;;;;;-150.07;32.07;54944.88;5011233;28;20357;-83
2021/05/06 09:54:31;;;;;;;16.85;4.68;;;;;;;-150.07;32.46;54946.97;5006228;28;20029;-85
2021/05/06 09:57:04;;;;;;;15.15;5.25;;;;;;;-150.07;32.66;54946.97;4984904;28;20030;-86
2021/05/06 09:59:33;;;;;;;23.60;5.15;;;;;;;-150.07;32.27;54949.06;5018452;28;20033;-85
2021/05/06 10:02:13;;;;;;;26.30;4.85;;;;;;;-150.07;32.10;54949.06;4996479;28;20394;-85
2021/05/06 10:04:45;;;;;;;32.17;6.37;;;;;;;-150.07;31.91;54946.97;4993671;28;20070;-85
2021/05/06 10:07:14;;;;;;;21.52;4.93;;;;;;;-150.07;32.20;54949.06;4993400;28;20035;-86
2021/05/06 10:10:09;;;;;;;19.15;5.20;;;;;;;-150.07;32.38;54946.97;4999751;28;20562;-87
2021/05/06 10:12:39;;;;;;;22.85;5.95;;;;;;;-150.07;32.64;54949.06;5008211;28;20084;-83
2021/05/06 10:15:08;;;;;;;27.40;4.82;;;;;;;-150.07;32.54;54949.06;4989322;28;20037;-84
2021/05/06 10:17:37;;;;;;;15.77;4.07;;;;;;;-150.07;32.72;54949.06;5013959;28;20387;-84
2021/05/06 10:20:05;;;;;;;28.00;5.18;;;;;;;-150.07;32.64;54949.06;4995797;28;20038;-83
2021/05/06 10:22:32;;;;;;;19.55;4.90;;;;;;;-150.07;33.16;54946.97;4994909;28;20060;-83
2021/05/06 10:25:07;;;;;;;17.75;5.20;;;;;;;-150.07;33.26;54946.97;4995302;28;20498;-84
2021/05/06 10:27:35;;;;;;;17.70;4.07;;;;;;;-150.07;32.79;54951.16;5023197;28;20042;-92
2021/05/06 10:30:06;;;;;;;23.77;4.68;;;;;;;-150.07;32.37;54949.06;5015534;28;20021;-92
2021/05/06 10:32:35;;;;;;;11.48;4.53;;;;;;;-150.07;32.25;54949.06;5033771;28;20036;-90
2021/05/06 10:37:59;;;;;;;33.85;6.30;;;;;;;-150.07;32.43;54949.06;5282733;23;20069;-91
2021/05/06 10:40:38;;;;;;;23.23;4.90;;;;;;;-150.07;32.59;54946.97;5013152;28;20054;-93
2021/05/06 10:43:20;;;;;;;20.80;5.23;;;;;;;-150.07;32.24;54946.97;5027493;28;20061;-94
2021/05/06 10:45:58;;;;;;;14.90;4.25;;;;;;;-150.07;32.23;54949.06;5038585;28;20129;-96
2021/05/06 10:49:02;;;;;;;15.88;4.13;;;;;;;-150.07;32.42;54946.97;5038614;28;20030;-93
2021/05/06 10:52:00;;;;;;;20.50;4.13;;;;;;;-150.07;31.44;54946.97;5029883;28;20026;-91
2021/05/06 10:54:56;;;;;;;25.77;5.07;;;;;;;-150.07;31.37;54946.97;5079141;23;20059;-94
2021/05/06 10:57:34;;;;;;;20.30;3.88;;;;;;;-150.07;31.65;54946.97;5144908;23;20054;-91
2021/05/06 11:00:03;;;;;;;20.33;4.72;;;;;;;-150.07;31.48;54942.78;4978668;28;20030;-87
2021/05/06 11:02:46;;;;;;;21.50;4.95;;;;;;;-150.07;31.87;54949.06;4976018;28;20027;-86
2021/05/06 11:05:17;;;;;;;35.30;4.93;;;;;;;-150.07;32.23;54951.16;4977781;28;20037;-90
2021/05/06 11:08:04;;;;;;;26.80;6.90;;;;;;;-150.07;32.72;54951.16;4973723;28;20032;-86
2021/05/06 11:14:10;;;;;;;16.48;5.43;;;;;;;-150.07;33.70;54946.97;4927069;29;20043;-89
2021/05/06 11:16:39;;;;;;;18.08;4.35;;;;;;;-150.07;33.47;54949.06;4986362;28;20027;-92
2021/05/06 11:19:09;;;;;;;15.85;5.20;;;;;;;-150.07;33.10;54946.97;4990015;28;20121;-91
2021/05/06 11:21:38;;;;;;;16.77;4.97;;;;;;;-150.07;32.87;54949.06;5008319;28;20022;-89
2021/05/06 11:24:18;;;;;;;20.83;4.37;;;;;;;-150.07;33.08;54949.06;4989097;28;20121;-92
2021/05/06 11:29:39;;;;;;;18.90;4.70;;;;;;;-150.07;32.41;54949.06;4981165;28;20023;-90
2021/05/06 11:32:20;;;;;;;37.38;7.05;;;;;;;-150.07;32.97;54946.97;4981257;28;20037;-88
2021/05/06 11:34:51;;;;;;;14.40;5.70;;;;;;;-150.07;32.79;54946.97;4980191;28;20082;-91
2021/05/06 11:37:27;;;;;;;22.83;4.95;;;;;;;-150.07;32.49;54946.97;4979583;28;20085;-89
2021/05/06 11:40:06;;;;;;;20.05;4.30;;;;;;;-150.07;32.42;54949.06;4970772;28;20102;-88
2021/05/06 11:42:41;;;;;;;20.63;4.93;;;;;;;-150.07;32.56;54949.06;4978888;28;20097;-85
2021/05/06 11:45:15;;;;;;;15.55;4.57;;;;;;;-150.07;32.13;54944.88;4981543;28;20061;-85
2021/05/06 11:47:43;;;;;;;20.38;4.15;;;;;;;-150.07;31.97;54951.16;4972326;28;20035;-84
2021/05/06 11:50:24;;;;;;;17.98;4.00;;;;;;;-150.07;32.15;54946.97;4968481;28;20097;-84
2021/05/06 11:52:52;;;;;;;27.88;6.32;;;;;;;-150.07;32.20;54944.88;4968497;28;20041;-84
2021/05/06 11:55:40;;;;;;;20.77;4.90;;;;;;;-150.07;32.07;54949.06;4967397;28;20039;-82
2021/05/06 11:58:09;;;;;;;21.05;4.50;;;;;;;-150.07;31.52;54951.16;4968797;28;20047;-83
2021/05/06 12:00:39;;;;;;;21.10;4.32;;;;;;;-150.07;31.75;54949.06;4968304;28;20034;-83
2021/05/06 12:03:10;;;;;;;;;;;;;;;-150.07;32.24;54946.97;4985275;28;20562;-83
2021/05/06 12:06:06;;;;;;;17.05;4.53;;;;;;;-150.07;31.58;54949.06;4969942;28;19972;-86
2021/05/06 12:08:48;;;;;;;17.85;4.82;;;;;;;-150.07;31.74;54951.16;4961590;28;20043;-85
2021/05/06 12:11:16;;;;;;;25.38;4.90;;;;;;;-150.07;31.74;54946.97;4973523;28;20037;-87
2021/05/06 12:13:44;;;;;;;12.15;3.92;;;;;;;-150.07;31.43;54946.97;4975342;28;20039;-85
2021/05/06 12:16:14;;;;;;;17.20;3.63;;;;;;;-150.07;31.63;54946.97;4969074;28;20026;-86
2021/05/06 12:18:42;;;;;;;17.15;4.07;;;;;;;-150.07;32.77;54949.06;4987001;28;20039;-88
2021/05/06 12:21:09;;;;;;;37.85;6.97;;;;;;;-150.07;32.54;54946.97;4970334;28;20113;-85
2021/05/06 12:23:46;;;;;;;25.35;5.72;;;;;;;-150.07;33.57;54946.97;4969574;28;20078;-85
2021/05/06 12:26:17;;;;;;;26.80;5.25;;;;;;;-150.07;33.39;54946.97;4967667;28;20068;-83
2021/05/06 12:28:45;;;;;;;21.20;5.38;;;;;;;-150.07;34.01;54951.16;4969875;28;20038;-87
2021/05/06 12:31:12;;;;;;;18.35;5.40;;;;;;;-150.07;33.23;54942.78;4970420;28;20089;-86
2021/05/06 12:33:39;;;;;;;28.75;5.40;;;;;;;-150.07;33.05;54946.97;4970358;28;20038;-86
2021/05/06 12:36:10;;;;;;;20.75;5.38;;;;;;;-150.07;33.21;54949.06;4970797;28;20035;-85
2021/05/06 12:38:39;;;;;;;26.45;6.72;;;;;;;-150.07;33.95;54951.16;4969028;28;20097;-85
2021/05/06 12:41:08;;;;;;;20.48;5.38;;;;;;;-150.07;33.59;54946.97;4968841;28;20061;-87
2021/05/06 12:43:37;;;;;;;32.50;5.10;;;;;;;-150.07;33.46;54946.97;4977457;28;20018;-90
2021/05/06 12:46:13;;;;;;;16.80;5.93;;;;;;;-150.07;33.67;54946.97;4979111;28;20297;-88
2021/05/06 12:48:54;;;;;;;23.27;5.35;;;;;;;-150.07;33.03;54949.06;4987319;28;20027;-87
2021/05/06 12:51:32;;;;;;;17.05;6.32;;;;;;;-150.07;33.03;54951.16;4984129;28;20039;-86
2021/05/06 12:54:04;;;;;;;19.65;6.53;;;;;;;-150.07;32.67;54951.16;4972116;28;20023;-87
2021/05/06 12:56:37;;;;;;;27.45;6.28;;;;;;;-150.07;32.45;54949.06;4973151;28;20035;-85
2021/05/06 12:59:23;;;;;;;26.20;6.68;;;;;;;-150.07;32.32;54951.16;4990938;28;20073;-83
2021/05/06 13:01:50;;;;;;;30.83;7.80;;;;;;;-150.07;32.32;54951.16;4993180;28;20384;-85
2021/05/06 13:04:17;;;;;;;19.63;4.78;;;;;;;-150.07;31.50;54946.97;4994353;28;20026;-85
2021/05/06 13:06:44;;;;;;;24.98;5.50;;;;;;;-150.07;31.67;54949.06;4993377;28;20045;-84
2021/05/06 13:09:18;;;;;;;31.02;5.60;;;;;;;-150.07;31.25;54951.16;4976482;28;20052;-84
2021/05/06 13:11:45;;;;;;;18.27;5.22;;;;;;;-150.07;31.54;54946.97;4976140;28;20030;-85
2021/05/06 13:14:12;;;;;;;20.75;5.03;;;;;;;-150.07;31.49;54949.06;4991965;28;20046;-81
2021/05/06 13:16:51;;;;;;;26.73;4.72;;;;;;;-150.07;31.06;54946.97;4991032;28;20061;-82
2021/05/06 13:19:24;;;;;;;19.42;5.43;;;;;;;-150.07;30.90;54949.06;4991480;28;20037;-82
2021/05/06 13:21:57;;;;;;;29.27;5.88;;;;;;;-150.07;31.07;54951.16;4989906;28;20484;-82
2021/05/06 13:24:24;;;;;;;21.67;4.90;;;;;;;-150.07;31.60;54946.97;4990045;28;20018;-82
2021/05/06 13:26:51;;;;;;;22.88;5.22;;;;;;;-150.07;31.60;54949.06;4990032;28;20038;-82
2021/05/06 13:29:21;;;;;;;19.92;5.57;;;;;;;-150.07;30.83;54949.06;4991113;28;20038;-84
2021/05/06 13:31:51;;;;;;;26.98;6.50;;;;;;;-150.07;31.04;54946.97;4988910;28;20026;-82
2021/05/06 13:34:27;;;;;;;25.33;5.10;;;;;;;-150.07;30.49;54946.97;4987858;28;20403;-81
2021/05/06 13:37:03;;;;;;;27.20;7.60;;;;;;;-150.07;31.46;54949.06;4990864;28;20117;-82
2021/05/06 13:39:30;;;;;;;22.27;7.53;;;;;;;-150.07;31.52;54946.97;4991522;28;20049;-82
2021/05/06 13:41:58;;;;;;;25.17;7.47;;;;;;;-150.07;31.84;54946.97;4991289;28;20084;-82
2021/05/06 13:44:28;;;;;;;31.92;9.80;;;;;;;-150.07;31.38;54951.16;4973967;28;20396;-82
2021/05/06 13:47:04;;;;;;;23.90;7.30;;;;;;;-150.07;31.46;54951.16;4991134;28;20096;-82
2021/05/06 13:49:32;;;;;;;33.75;7.43;;;;;;;-150.07;32.00;54951.16;4991179;28;20026;-82
2021/05/06 13:52:01;;;;;;;28.45;6.53;;;;;;;-150.07;31.58;54951.16;4972208;28;20077;-82
2021/05/06 13:54:28;;;;;;;24.13;9.55;;;;;;;-150.07;32.21;54951.16;4978358;28;21215;-82
2021/05/06 13:56:56;;;;;;;25.60;9.32;;;;;;;-150.07;31.31;54946.97;4992028;28;20031;-83
2021/05/06 13:59:23;;;;;;;42.85;11.35;;;;;;;-150.07;30.96;54949.06;4992786;28;20054;-83
2021/05/06 14:01:56;;;;;;;37.92;13.05;;;;;;;-150.07;31.64;54946.97;4991183;28;20037;-82
2021/05/06 14:04:24;;;;;;;29.80;12.55;;;;;;;-150.07;31.62;54949.06;4990566;28;20474;-83
2021/05/06 14:06:51;;;;;;;43.53;14.25;;;;;;;-150.07;31.91;54949.06;4990877;28;20030;-82
2021/05/06 14:09:19;;;;;;;40.92;13.57;;;;;;;-150.07;31.84;54949.06;4989747;28;20034;-81
2021/05/06 14:11:47;;;;;;;32.90;13.18;;;;;;;-150.07;32.13;54949.06;4990564;28;20507;-81
2021/05/06 14:14:16;;;;;;;46.50;13.02;;;;;;;-150.07;32.31;54946.97;4990880;28;20050;-82
2021/05/06 14:16:43;;;;;;;31.63;14.23;;;;;;;-150.07;32.87;54949.06;4972199;28;20034;-82
2021/05/06 14:19:12;;;;;;;34.35;13.93;;;;;;;-150.07;32.39;54949.06;4990560;28;20062;-81
2021/05/06 14:21:40;;;;;;;48.33;13.68;;;;;;;-150.07;32.72;54951.16;4987412;28;20030;-82
2021/05/06 14:24:10;;;;;;;38.90;11.57;;;;;;;-150.07;32.28;54951.16;4990651;28;20027;-83
2021/05/06 14:26:37;;;;;;;24.23;11.38;;;;;;;-150.07;32.75;54946.97;4990423;28;20031;-83
2021/05/06 14:29:05;;;;;;;37.25;13.38;;;;;;;-150.07;32.91;54949.06;4990448;28;20040;-82
2021/05/06 14:31:32;;;;;;;29.27;10.82;;;;;;;-150.07;32.95;54949.06;4973173;28;20038;-82
2021/05/06 14:33:59;;;;;;;32.60;11.45;;;;;;;-150.07;32.81;54946.97;4973274;28;20026;-82
2021/05/06 14:36:25;;;;;;;39.33;13.40;;;;;;;-150.07;32.13;54946.97;4990804;28;20023;-82
2021/05/06 14:38:54;;;;;;;28.52;12.30;;;;;;;-150.07;32.59;54949.06;4990924;28;20073;-82
2021/05/06 14:41:21;;;;;;;31.63;12.45;;;;;;;-150.07;32.05;54951.16;4990461;28;20117;-82
2021/05/06 14:43:48;;;;;;;39.00;11.85;;;;;;;-150.07;31.59;54946.97;4990849;28;20518;-81
2021/05/06 14:46:15;;;;;;;41.38;12.32;;;;;;;-150.07;32.08;54951.16;4972499;28;20030;-82
2021/05/06 14:48:41;;;;;;;34.58;12.70;;;;;;;-150.07;32.10;54951.16;4990729;28;20509;-82
2021/05/06 14:51:08;;;;;;;28.33;10.77;;;;;;;-150.07;32.35;54951.16;4990412;28;20373;-82
2021/05/06 14:53:35;;;;;;;37.00;12.13;;;;;;;-150.07;32.25;54951.16;4990752;28;20030;-83